Saturday, June 25, 2016
23:10 UTC
  |  Log In   |  Register Free
Airport Search:

Talladega Municipal Airport
(KASN)

Talladega Municipal Airport Diagram
No Airport Diagram Available

FAA data valid effective May 26 2016 - Jul 21 2016 (unless otherwise noted).

 
 
 
 
 
 
 
 
 
 
 
 
 
 
Current Aviation Weather for KASN

Weather Summary


The most recent METAR observation for ASN was updated at: 12:53 UTC
METAR for KASN is not available. Closest METAR is for KGAD
KASN  (most recent observation was updatred at 25:22 UTC)
252255Z AUTO 15008KT 10SM VCTS SCT070 SCT110 A3006 RMK AO2 LTG DSNT ALQS

KGAD  (24.3 nm SE)   (most recent observation was updated at 25:22 UTC)
252256Z AUTO 22006KT 10SM CLR 31/23 A3003 RMK AO2 LTG DSNT N AND NW SLP178 T03060228

KSCD  (27.1 nm NE)   (most recent observation was updated at 25:22 UTC)
252255Z AUTO 00000KT 10SM 33/21 A3005 RMK AO2 LTG DSNT N T03300205

TAF for KASN is not available.
KASN
AMD 252156Z 2522/2618 31005KT P6SM VCTS SCT050CB TEMPO 2522/2523 VRB10G20KT BKN040CB FM260100 VRB02KT P6SM SCT250

KANB  (9.7 nm SW)   (most recent observation was updatred at 25:21 UTC)
AMD 252136Z 2522/2618 31005KT P6SM VCTS SCT050CB TEMPO 2522/2523 VRB10G20KT BKN040CB FM260100 VRB02KT P6SM SCT250


KBHM  (35.1 nm NE)   (most recent observation was updatred at 25:19 UTC)
AMD 251900Z 2519/2618 35006KT P6SM VCTS SCT050CB TEMPO 2519/2520 VRB10G20KT TSRA BKN060CB FM260100 VRB02KT P6SM SCT250
GlobalAir.com is loading additional information.
 Current Weather at ASN


North winds at 8.1 mph
Pressure:
30.05 in
Humidity:
%
Wind:
North at 8.1 mph
Dew Point:
Visibility:
10.00 mi
ASN NOAA Radar




Find All Airport Services Find A Hotel Find A Rental Car Find A Golf Course Find A Restaurant $100 Hamburger



Airport Weather Forecast for KASN

Translated METAR for KASN (2253 UTC)
METAR:
KANB 252253Z AUTO 19003KT 10SM VCTS FEW043 FEW090 26/20 A3006 RMK AO2 LTG DSNT SW TSE33 SLP170 T02610200

KANB 252153Z AUTO 23006KT 10SM TS FEW047 SCT120 32/18 A3004 RMK AO2 LTG DSNT W AND NW TSB22E48B52 SLP160 T03170183

KANB 252053Z AUTO 22009KT 10SM VCTS BKN075 36/19 A3003 RMK AO2 LTG DSNT SE AND S AND NW SLP155 T03560189 58019

KASN 252255Z AUTO 15008KT 10SM VCTS SCT070 SCT110 A3006 RMK AO2 LTG DSNT ALQS

TAF AMD KANB 252136Z 2522/2618 31005KT P6SM VCTS SCT050CB TEMPO 2522/2523 VRB10G20KT BKN040CB FM260100 VRB02KT P6SM SCT250

TAF AMD KASN 252156Z 2522/2618 31005KT P6SM VCTS SCT050CB TEMPO 2522/2523 VRB10G20KT BKN040CB FM260100 VRB02KT P6SM SCT250

Conditions at:
KANB (Anniston Rgnl, AL) observed 2253 UTC 25 June 2016
Temperature:
26°C (78.8°F)
Dewpoint:
20°C (68°F) [RH = 69.5]
Pressure:
30.06 inches Hg (1017.9 mb)
pressure at sea level is 170 in Hg
pressure at sea level is 160 in Hg
pressure at sea level is 155 in Hg
Winds:
from the S (190 degrees) at 3.5 mph (3 knots: 1.5 m/s)
Visibility:
P6 mile(s)
Ceiling:
at least 12,000 feet AGL
Clouds:
Few Clouds at 4,300 feet AGL
Few Clouds at 9,000 feet AGL
Remarks:
site is un-manned
site is automated and HAS a precipitation sensor

Translated TAF for KASN (Talladega Muni, AL) (2156 UTC)
TAF text:
KASN 252156Z 2522/2618 31005KT P6SM VCTS SCT050CB
Forecast period:
Saturday Jun 25 2016 22:00 UTC - Sunday Jun 26 2016 18:00 UTC
Forecast type:
FROM: standard forecast or significant change
Winds:
from the NW (310 degrees) at 5.8 mph (5 knots: 2.6 m/s)
Visibility:
6 or more mile(s) (9.7+ km)
Ceiling:
Clouds:
Weather:
Moderate In Vicinity Thunderstorm
TAF text:
2522/2523 VRB10G20KT BKN040CB
Forecast period:
Sunday Jun 26 2016 22:00 UTC - Sunday Jun 26 2016 23:00 UTC
Forecast type:
FROM: standard forecast or significant change
Winds:
variable wind direction at 11.5 mph (10 knots: 5.1 m/s)
gusting to 23 mph (20 knots: 10.3 m/s)
Visibility:
Ceiling:
Clouds:
Weather:
no significant weather observed at this time
TAF text:
FM260100 VRB02KT P6SM SCT250
Forecast period:
Sunday Jun 26 2016 01:00 UTC - Sunday Jun 26 2016 18:00 UTC
Forecast type:
FROM: standard forecast or significant change
Winds:
variable wind direction at 2.3 mph (2 knots: 1 m/s)
Visibility:
6 or more mile(s) (9.7+ km)
Ceiling:
at least 12,000 feet AGL
Clouds:
Scattered Clouds at 25,000 feet AGL
Weather:
no significant weather observed at this time
FBO's on the Field
FBO Company Facility Photos Services Transportation Aviation Fuel Prices: Prices include tax
Catering Weather Repair Courtesy Rental Type 100LL JetA JetA+ MOGAS 8087
 
Talladega Municipal

This FBO has not yet been rated
FS:Phillips 66
Last Updated: May-23
Login to update fuel prices
SS:
Contact Talladega MunicipalMore FBO Information
 
Add another FBO Facility Photos Catering Weather Repair Courtesy Rental Type 100LL JetA JetA+ MOGAS 8087
Services Transportation Aviation Fuel Prices: Prices include tax


model-print
model-print
model-print
model-print